createdAt,value
2022-09-02T00:01:24.127Z,2.25
2022-09-02T00:03:52.917Z,2.42
2022-09-02T00:06:21.553Z,2.17
2022-09-02T00:08:50.250Z,2.33
2022-09-02T00:11:23.495Z,2.50
2022-09-02T00:13:53.098Z,2.55
2022-09-02T00:16:23.947Z,2.65
2022-09-02T00:18:53.845Z,2.78
2022-09-02T00:21:22.957Z,3.03
2022-09-02T00:23:53.202Z,2.50
2022-09-02T00:26:24.781Z,2.28
2022-09-02T00:28:56.271Z,2.60
2022-09-02T00:31:27.650Z,2.53
2022-09-02T00:33:56.552Z,2.90
2022-09-02T00:36:25.051Z,2.63
2022-09-02T00:38:53.701Z,2.65
2022-09-02T00:41:27.072Z,2.88
2022-09-02T00:43:58.154Z,2.75
2022-09-02T00:46:30.429Z,2.83
2022-09-02T00:49:05.420Z,2.70
2022-09-02T00:51:42.899Z,2.85
2022-09-02T00:54:14.384Z,2.70
2022-09-02T00:56:55.654Z,2.72
2022-09-02T00:59:33.000Z,2.70
2022-09-02T01:02:01.857Z,3.15
2022-09-02T01:04:30.631Z,2.50
2022-09-02T01:06:59.127Z,2.90
2022-09-02T01:09:27.754Z,2.97
2022-09-02T01:11:58.739Z,3.08
2022-09-02T01:14:28.719Z,2.95
2022-09-02T01:17:01.303Z,2.70
2022-09-02T01:19:35.116Z,2.70
2022-09-02T01:22:16.390Z,2.85
2022-09-02T01:24:45.018Z,3.00
2022-09-02T01:27:17.311Z,3.30
2022-09-02T01:29:46.508Z,3.10
2022-09-02T01:32:15.284Z,2.70
2022-09-02T01:34:44.580Z,2.78
2022-09-02T01:37:15.041Z,2.60
2022-09-02T01:39:44.447Z,2.58
2022-09-02T01:42:13.347Z,2.83
2022-09-02T01:44:45.316Z,2.45
2022-09-02T01:47:14.913Z,2.50
2022-09-02T01:49:43.989Z,2.67
2022-09-02T01:52:15.866Z,2.70
2022-09-02T01:54:44.758Z,2.70
2022-09-02T01:57:15.176Z,2.60
2022-09-02T01:59:46.552Z,2.80
2022-09-02T02:02:16.250Z,2.65
2022-09-02T02:04:46.264Z,2.47
2022-09-02T02:07:19.322Z,2.80
2022-09-02T02:09:48.636Z,2.88
2022-09-02T02:12:18.025Z,2.53
2022-09-02T02:14:47.026Z,3.38
2022-09-02T02:17:15.649Z,3.00
2022-09-02T02:19:45.368Z,2.80
2022-09-02T02:22:14.334Z,2.88
2022-09-02T02:24:44.554Z,3.10
2022-09-02T02:27:13.183Z,2.88
2022-09-02T02:29:41.917Z,3.20
2022-09-02T02:32:10.747Z,2.78
2022-09-02T02:34:40.702Z,2.97
2022-09-02T02:37:09.205Z,3.03
2022-09-02T02:39:37.589Z,3.08
2022-09-02T02:42:08.596Z,2.90
2022-09-02T02:44:39.009Z,3.08
2022-09-02T02:47:09.638Z,2.70
2022-09-02T02:49:40.162Z,2.67
2022-09-02T02:52:09.754Z,2.85
2022-09-02T02:54:38.262Z,2.95
2022-09-02T02:57:09.204Z,3.05
2022-09-02T02:59:38.600Z,2.70
2022-09-02T03:02:09.598Z,2.60
2022-09-02T03:04:40.412Z,2.67
2022-09-02T03:07:09.397Z,2.60
2022-09-02T03:09:41.073Z,2.70
2022-09-02T03:12:11.489Z,2.40
2022-09-02T03:14:40.148Z,2.78
2022-09-02T03:17:09.388Z,2.83
2022-09-02T03:19:37.981Z,2.55
2022-09-02T03:22:07.800Z,2.67
2022-09-02T03:24:36.475Z,2.75
2022-09-02T03:27:05.222Z,3.20
2022-09-02T03:29:35.612Z,2.60
2022-09-02T03:32:05.138Z,2.72
2022-09-02T03:34:36.343Z,2.83
2022-09-02T03:37:06.240Z,2.70
2022-09-02T03:39:35.164Z,2.47
2022-09-02T03:42:03.575Z,3.20
2022-09-02T03:44:35.900Z,2.78
2022-09-02T03:47:04.325Z,2.83
2022-09-02T03:49:33.244Z,3.05
2022-09-02T03:52:02.077Z,3.00
2022-09-02T03:54:31.103Z,3.10
2022-09-02T03:56:59.524Z,3.05
2022-09-02T03:59:28.756Z,3.10
2022-09-02T04:01:59.015Z,3.28
2022-09-02T04:04:27.599Z,3.03
2022-09-02T04:06:56.125Z,3.30
2022-09-02T04:09:24.760Z,3.30
2022-09-02T04:11:53.850Z,2.78
2022-09-02T04:14:22.478Z,3.10
2022-09-02T04:16:51.187Z,3.47
2022-09-02T04:19:23.444Z,3.20
2022-09-02T04:21:52.074Z,3.40
2022-09-02T04:24:20.634Z,2.90
2022-09-02T04:26:49.200Z,3.20
2022-09-02T04:29:19.057Z,3.00
2022-09-02T04:31:47.707Z,3.58
2022-09-02T04:34:16.091Z,3.33
2022-09-02T04:36:46.082Z,3.80
2022-09-02T04:39:17.491Z,3.95
2022-09-02T04:41:47.128Z,4.20
2022-09-02T04:44:15.916Z,3.70
2022-09-02T04:46:44.644Z,3.97
2022-09-02T04:49:13.368Z,3.95
2022-09-02T04:51:41.835Z,3.80
2022-09-02T04:54:12.080Z,3.60
2022-09-02T04:56:40.807Z,3.67
2022-09-02T04:59:09.450Z,3.90
2022-09-02T05:01:37.956Z,4.10
2022-09-02T05:04:09.924Z,3.72
2022-09-02T05:06:44.106Z,4.00
2022-09-02T05:09:15.880Z,4.20
2022-09-02T05:11:44.332Z,4.55
2022-09-02T05:14:13.689Z,4.28
2022-09-02T05:16:45.860Z,4.15
2022-09-02T05:19:14.798Z,4.53
2022-09-02T05:21:45.000Z,4.47
2022-09-02T05:24:15.984Z,4.70
2022-09-02T05:26:45.144Z,4.70
2022-09-02T05:29:16.035Z,4.70
2022-09-02T05:31:44.968Z,4.82
2022-09-02T05:34:13.635Z,4.47
2022-09-02T05:36:42.282Z,4.63
2022-09-02T05:39:10.822Z,4.47
2022-09-02T05:41:41.453Z,4.40
2022-09-02T05:44:10.520Z,4.45
2022-09-02T05:46:39.202Z,4.90
2022-09-02T05:49:07.914Z,4.88
2022-09-02T05:51:42.861Z,5.10
2022-09-02T05:54:14.916Z,4.68
2022-09-02T05:56:47.208Z,4.82
2022-09-02T05:59:16.729Z,5.13
2022-09-02T06:01:45.528Z,4.97
2022-09-02T06:04:14.341Z,4.57
2022-09-02T06:06:43.372Z,4.85
2022-09-02T06:09:14.293Z,5.05
2022-09-02T06:11:49.705Z,5.07
2022-09-02T06:14:22.042Z,5.07
2022-09-02T06:16:51.906Z,5.15
2022-09-02T06:19:20.864Z,4.93
2022-09-02T06:21:50.575Z,4.93
2022-09-02T06:24:18.981Z,5.18
2022-09-02T06:26:49.392Z,4.60
2022-09-02T06:29:18.250Z,4.93
2022-09-02T06:31:48.389Z,5.03
2022-09-02T06:34:18.777Z,5.35
2022-09-02T06:36:50.043Z,5.18
2022-09-02T06:39:23.572Z,5.25
2022-09-02T06:41:53.573Z,4.97
2022-09-02T06:44:23.564Z,5.65
2022-09-02T06:46:57.099Z,5.40
2022-09-02T06:49:27.390Z,5.20
2022-09-02T06:51:57.350Z,5.25
2022-09-02T06:54:26.143Z,4.85
2022-09-02T06:56:56.439Z,5.18
2022-09-02T06:59:25.660Z,4.78
2022-09-02T07:01:54.445Z,4.82
2022-09-02T07:04:41.184Z,5.00
2022-09-02T07:07:12.359Z,5.45
2022-09-02T07:09:41.205Z,4.90
2022-09-02T07:12:12.211Z,4.95
2022-09-02T07:14:42.521Z,4.45
2022-09-02T07:17:13.147Z,5.00
2022-09-02T07:19:41.679Z,4.70
2022-09-02T07:22:10.328Z,5.25
2022-09-02T07:24:39.605Z,5.20
2022-09-02T07:27:11.397Z,4.85
2022-09-02T07:29:41.537Z,5.18
2022-09-02T07:32:10.458Z,4.90
2022-09-02T07:34:39.090Z,5.00
2022-09-02T07:37:10.845Z,4.95
2022-09-02T07:39:40.019Z,5.15
2022-09-02T07:42:13.503Z,5.35
2022-09-02T07:44:42.207Z,5.53
2022-09-02T07:47:10.687Z,5.70
2022-09-02T07:52:30.025Z,5.38
2022-09-02T07:54:58.675Z,5.97
2022-09-02T07:57:28.919Z,5.80
2022-09-02T07:59:57.607Z,6.18
2022-09-02T08:02:26.434Z,6.03
2022-09-02T08:04:55.119Z,5.47
2022-09-02T08:07:24.705Z,5.53
2022-09-02T08:09:56.056Z,5.88
2022-09-02T08:12:24.489Z,5.72
2022-09-02T08:14:54.500Z,6.25
2022-09-02T08:17:23.431Z,6.20
2022-09-02T08:19:53.761Z,6.25
2022-09-02T08:22:22.270Z,6.28
2022-09-02T08:24:50.554Z,6.35
2022-09-02T08:27:19.176Z,6.40
2022-09-02T08:29:48.447Z,5.63
2022-09-02T08:32:19.072Z,5.78
2022-09-02T08:34:47.910Z,6.43
2022-09-02T08:37:17.057Z,6.25
2022-09-02T08:39:49.657Z,6.25
2022-09-02T08:42:24.314Z,6.57
2022-09-02T08:44:59.579Z,6.32
2022-09-02T08:47:33.602Z,6.03
2022-09-02T08:50:07.438Z,6.00
2022-09-02T08:52:40.804Z,5.40
2022-09-02T08:55:15.591Z,5.60
2022-09-02T08:57:47.396Z,5.32
2022-09-02T09:00:17.555Z,5.20
2022-09-02T09:02:58.143Z,5.53
2022-09-02T09:05:39.233Z,4.57
2022-09-02T09:08:21.637Z,4.80
2022-09-02T09:11:00.688Z,4.43
2022-09-02T09:14:00.011Z,4.45
2022-09-02T09:16:37.478Z,4.22
2022-09-02T09:19:13.644Z,4.00
2022-09-02T09:21:43.285Z,3.97
2022-09-02T09:24:24.104Z,4.68
2022-09-02T09:26:55.611Z,4.03
2022-09-02T09:29:24.151Z,5.22
2022-09-02T09:32:00.285Z,4.55
2022-09-02T09:35:02.680Z,3.70
2022-09-02T09:37:36.255Z,3.60
2022-09-02T09:40:25.058Z,3.85
2022-09-02T09:42:57.868Z,3.90
2022-09-02T09:45:33.889Z,3.88
2022-09-02T09:48:27.762Z,3.80
2022-09-02T09:51:16.268Z,4.30
2022-09-02T09:53:46.197Z,3.20
2022-09-02T09:56:37.480Z,2.95
2022-09-02T09:59:11.019Z,4.00
2022-09-02T10:01:39.511Z,3.50
2022-09-02T10:04:39.203Z,3.45
2022-09-02T10:07:01.125Z,3.80
2022-09-02T10:09:37.614Z,3.65
2022-09-02T10:12:09.017Z,3.42
2022-09-02T10:14:41.241Z,3.85
2022-09-02T10:17:25.160Z,4.60
2022-09-02T10:20:01.068Z,4.40
2022-09-02T10:23:06.333Z,4.20
2022-09-02T10:25:46.760Z,4.00
2022-09-02T10:28:31.450Z,3.88
2022-09-02T10:31:11.788Z,4.10
2022-09-02T10:33:51.195Z,4.38
2022-09-02T10:36:29.014Z,3.38
2022-09-02T10:39:13.612Z,3.67
2022-09-02T10:44:32.898Z,3.65
2022-09-02T10:47:04.418Z,3.38
2022-09-02T10:49:48.871Z,3.75
2022-09-02T10:52:42.998Z,3.70
2022-09-02T10:55:21.709Z,3.75
2022-09-02T10:57:56.548Z,3.58
2022-09-02T11:00:26.123Z,3.20
2022-09-02T11:03:05.131Z,3.30
2022-09-02T11:05:44.998Z,3.35
2022-09-02T11:08:17.845Z,3.08
2022-09-02T11:10:56.572Z,2.70
2022-09-02T11:13:33.351Z,2.38
2022-09-02T11:16:07.012Z,2.65
2022-09-02T11:18:43.892Z,3.25
2022-09-02T11:21:26.400Z,3.20
2022-09-02T11:24:07.053Z,3.10
2022-09-02T11:26:42.101Z,3.28
2022-09-02T11:29:16.062Z,2.78
2022-09-02T11:31:48.407Z,2.80
2022-09-02T11:34:26.058Z,2.40
2022-09-02T11:36:54.788Z,2.70
2022-09-02T11:39:51.766Z,2.60
2022-09-02T11:42:39.290Z,2.65
2022-09-02T11:45:25.537Z,2.45
2022-09-02T11:48:33.795Z,2.90
2022-09-02T11:51:25.133Z,7.13
2022-09-02T11:53:56.153Z,5.47
2022-09-02T11:56:30.603Z,3.90
2022-09-02T11:59:00.738Z,4.57
2022-09-02T12:01:33.366Z,6.10
2022-09-02T12:07:26.888Z,5.57
2022-09-02T12:10:02.974Z,5.95
2022-09-02T12:13:08.125Z,5.93
2022-09-02T12:15:40.804Z,4.47
2022-09-02T12:18:15.743Z,3.80
2022-09-02T12:21:16.476Z,3.35
2022-09-02T12:24:13.374Z,4.05
2022-09-02T12:27:20.754Z,4.97
2022-09-02T12:29:49.356Z,4.28
2022-09-02T12:33:05.363Z,4.20
2022-09-02T12:35:56.917Z,4.13
2022-09-02T12:38:32.533Z,3.60
2022-09-02T12:41:22.918Z,4.03
2022-09-02T12:44:19.971Z,3.97
2022-09-02T12:47:13.487Z,4.53
2022-09-02T12:49:52.267Z,5.10
2022-09-02T12:52:45.436Z,4.43
2022-09-02T12:55:27.321Z,4.35
2022-09-02T12:58:07.823Z,5.00
2022-09-02T13:00:46.765Z,4.90
2022-09-02T13:03:37.885Z,4.40
2022-09-02T13:06:14.038Z,5.07
2022-09-02T13:09:10.978Z,5.00
2022-09-02T13:12:10.269Z,4.63
2022-09-02T13:14:55.743Z,4.00
2022-09-02T13:17:37.697Z,3.95
2022-09-02T13:20:39.084Z,4.50
2022-09-02T13:23:43.147Z,5.25
2022-09-02T13:26:50.604Z,4.57
2022-09-02T13:29:48.075Z,4.20
2022-09-02T13:32:23.816Z,4.47
2022-09-02T13:34:55.642Z,4.32
2022-09-02T13:37:33.081Z,4.50
2022-09-02T13:40:08.336Z,4.45
2022-09-02T13:42:38.561Z,4.88
2022-09-02T13:45:15.263Z,4.25
2022-09-02T13:47:49.949Z,5.03
2022-09-02T13:50:24.717Z,5.07
2022-09-02T13:53:58.875Z,4.55
2022-09-02T13:55:52.177Z,4.90
2022-09-02T13:58:42.669Z,4.80
2022-09-02T14:01:24.622Z,4.90
2022-09-02T14:03:58.190Z,4.80
2022-09-02T14:06:30.265Z,5.25
2022-09-02T14:09:02.091Z,5.20
2022-09-02T14:11:36.223Z,5.55
2022-09-02T14:14:06.759Z,5.15
2022-09-02T14:16:38.656Z,5.07
2022-09-02T14:19:14.816Z,4.88
2022-09-02T14:21:48.529Z,5.38
2022-09-02T14:24:24.823Z,5.25
2022-09-02T14:26:57.481Z,4.35
2022-09-02T14:29:32.881Z,5.22
2022-09-02T14:32:13.144Z,5.40
2022-09-02T14:34:44.042Z,5.13
2022-09-02T14:37:24.714Z,5.03
2022-09-02T14:39:55.379Z,5.13
2022-09-02T14:42:28.386Z,5.30
2022-09-02T14:44:59.934Z,4.97
2022-09-02T14:47:29.120Z,5.40
2022-09-02T14:49:58.151Z,5.32
2022-09-02T14:52:29.798Z,5.88
2022-09-02T14:54:59.547Z,5.32
2022-09-02T14:57:32.627Z,6.15
2022-09-02T15:00:08.841Z,6.30
2022-09-02T15:02:40.383Z,5.65
2022-09-02T15:05:12.278Z,5.50
2022-09-02T15:07:41.219Z,5.47
2022-09-02T15:10:12.147Z,5.55
2022-09-02T15:12:46.380Z,5.57
2022-09-02T15:15:18.053Z,5.72
2022-09-02T15:17:46.910Z,5.43
2022-09-02T15:20:18.044Z,5.72
2022-09-02T15:22:47.985Z,5.63
2022-09-02T15:25:16.527Z,5.85
2022-09-02T15:27:44.940Z,6.88
2022-09-02T15:30:14.448Z,6.93
2022-09-02T15:32:45.859Z,6.35
2022-09-02T15:35:15.226Z,6.40
2022-09-02T15:37:43.718Z,6.57
2022-09-02T15:40:12.934Z,5.80
2022-09-02T15:42:41.549Z,5.70
2022-09-02T15:45:12.456Z,5.78
2022-09-02T15:47:41.631Z,6.40
2022-09-02T15:50:11.742Z,6.22
2022-09-02T15:52:48.991Z,6.50
2022-09-02T15:55:22.714Z,6.25
2022-09-02T15:58:02.048Z,6.25
2022-09-02T16:00:32.215Z,6.75
2022-09-02T16:03:01.467Z,6.47
2022-09-02T16:05:32.557Z,5.60
2022-09-02T16:08:01.714Z,6.20
2022-09-02T16:10:31.056Z,6.28
2022-09-02T16:13:00.855Z,6.03
2022-09-02T16:15:30.165Z,6.85
2022-09-02T16:18:02.698Z,5.72
2022-09-02T16:20:32.493Z,5.63
2022-09-02T16:23:00.768Z,5.57
2022-09-02T16:25:29.156Z,5.60
2022-09-02T16:27:57.752Z,5.75
2022-09-02T16:30:26.590Z,5.45
2022-09-02T16:32:55.263Z,5.90
2022-09-02T16:35:23.865Z,5.78
2022-09-02T16:37:57.180Z,5.68
2022-09-02T16:40:30.085Z,5.63
2022-09-02T16:42:59.203Z,5.22
2022-09-02T16:45:27.945Z,4.80
2022-09-02T16:48:00.605Z,5.18
2022-09-02T16:50:31.513Z,4.97
2022-09-02T16:53:01.824Z,4.93
2022-09-02T16:55:31.040Z,5.00
2022-09-02T16:58:07.177Z,5.47
2022-09-02T17:00:35.547Z,4.78
2022-09-02T17:03:04.679Z,4.97
2022-09-02T17:05:36.177Z,4.68
2022-09-02T17:08:06.648Z,4.57
2022-09-02T17:10:36.453Z,4.53
2022-09-02T17:13:05.276Z,4.32
2022-09-02T17:15:33.706Z,4.90
2022-09-02T17:18:02.537Z,5.70
2022-09-02T17:20:31.066Z,5.65
2022-09-02T17:22:59.544Z,6.60
2022-09-02T17:25:29.526Z,7.15
2022-09-02T17:27:57.900Z,7.28
2022-09-02T17:30:26.358Z,7.90
2022-09-02T17:32:56.738Z,8.15
2022-09-02T17:35:26.016Z,7.15
2022-09-02T17:37:54.528Z,7.38
2022-09-02T17:40:39.916Z,9.73
2022-09-02T17:43:10.085Z,10.05
2022-09-02T17:45:39.001Z,10.27
2022-09-02T17:48:34.281Z,15.07
2022-09-02T17:50:56.051Z,17.98
2022-09-02T17:53:26.702Z,19.15
2022-09-02T17:56:02.893Z,14.90
2022-09-02T17:58:52.680Z,11.68
2022-09-02T18:01:26.026Z,11.55
2022-09-02T18:04:07.670Z,10.10
2022-09-02T18:06:46.889Z,10.88
2022-09-02T18:09:16.451Z,10.13
2022-09-02T18:11:44.790Z,9.27
2022-09-02T18:14:28.602Z,10.05
2022-09-02T18:17:10.021Z,10.00
2022-09-02T18:19:56.074Z,10.52
2022-09-02T18:22:44.460Z,9.52
2022-09-02T18:25:32.387Z,9.02
2022-09-02T18:28:14.768Z,7.97
2022-09-02T18:30:49.911Z,9.15
2022-09-02T18:33:42.974Z,8.30
2022-09-02T18:36:24.658Z,7.97
2022-09-02T18:39:06.604Z,8.50
2022-09-02T18:41:52.150Z,8.15
2022-09-02T18:44:37.263Z,8.32
2022-09-02T18:47:11.752Z,7.75
2022-09-02T18:49:40.649Z,7.07
2022-09-02T18:52:11.643Z,6.65
2022-09-02T18:54:47.741Z,4.78
2022-09-02T18:57:16.697Z,4.82
2022-09-02T18:59:51.379Z,4.38
2022-09-02T19:02:33.017Z,4.05
2022-09-02T19:05:07.234Z,3.70
2022-09-02T19:07:54.921Z,3.63
2022-09-02T19:10:24.706Z,3.60
2022-09-02T19:12:54.432Z,3.08
2022-09-02T19:15:23.212Z,3.42
2022-09-02T19:17:54.432Z,3.30
2022-09-02T19:20:23.966Z,2.95
2022-09-02T19:22:56.090Z,3.22
2022-09-02T19:25:29.123Z,3.08
2022-09-02T19:28:02.593Z,3.22
2022-09-02T19:30:37.242Z,3.00
2022-09-02T19:33:09.455Z,3.50
2022-09-02T19:35:39.256Z,3.53
2022-09-02T19:38:07.963Z,3.17
2022-09-02T19:40:37.022Z,3.25
2022-09-02T19:43:07.992Z,3.20
2022-09-02T19:45:37.903Z,3.97
2022-09-02T19:48:11.748Z,3.85
2022-09-02T19:50:44.814Z,3.30
2022-09-02T19:53:19.771Z,3.58
2022-09-02T19:55:48.713Z,3.90
2022-09-02T19:58:18.791Z,3.83
2022-09-02T20:00:48.321Z,3.70
2022-09-02T20:03:18.710Z,4.07
2022-09-02T20:05:49.380Z,3.92
2022-09-02T20:08:19.952Z,4.00
2022-09-02T20:10:55.769Z,4.15
2022-09-02T20:13:25.695Z,4.00
2022-09-02T20:15:56.023Z,3.80
2022-09-02T20:18:28.514Z,3.88
2022-09-02T20:20:59.689Z,4.15
2022-09-02T20:23:43.533Z,4.18
2022-09-02T20:26:27.729Z,4.60
2022-09-02T20:29:10.290Z,4.28
2022-09-02T20:31:50.484Z,5.00
2022-09-02T20:34:42.645Z,5.82
2022-09-02T20:37:24.478Z,7.72
2022-09-02T20:40:21.699Z,8.73
2022-09-02T20:43:29.066Z,9.25
2022-09-02T20:46:03.570Z,8.88
2022-09-02T20:48:47.680Z,9.55
2022-09-02T20:51:24.699Z,10.82
2022-09-02T20:54:14.041Z,12.50
2022-09-02T20:56:52.695Z,13.25
2022-09-02T20:59:34.832Z,13.80
2022-09-02T21:02:05.900Z,13.70
2022-09-02T21:04:40.396Z,15.40
2022-09-02T21:07:19.471Z,15.45
2022-09-02T21:09:54.585Z,15.43
2022-09-02T21:12:36.173Z,16.48
2022-09-02T21:15:11.310Z,15.43
2022-09-02T21:17:48.811Z,15.38
2022-09-02T21:20:24.980Z,14.63
2022-09-02T21:22:59.654Z,13.73
2022-09-02T21:25:35.796Z,14.98
2022-09-02T21:28:09.287Z,15.25
2022-09-02T21:30:42.624Z,15.45
2022-09-02T21:33:13.424Z,16.23
2022-09-02T21:35:44.925Z,15.48
2022-09-02T21:38:26.572Z,15.63
2022-09-02T21:41:09.085Z,13.10
2022-09-02T21:43:55.847Z,10.38
2022-09-02T21:46:34.629Z,9.55
2022-09-02T21:49:13.518Z,9.27
2022-09-02T21:51:51.368Z,7.75
2022-09-02T21:54:33.729Z,6.20
2022-09-02T21:57:20.319Z,5.40
2022-09-02T21:59:56.632Z,4.60
2022-09-02T22:02:34.393Z,4.03
2022-09-02T22:05:09.176Z,3.88
2022-09-02T22:07:44.582Z,3.53
2022-09-02T22:10:24.570Z,3.30
2022-09-02T22:12:55.788Z,3.00
2022-09-02T22:15:33.707Z,3.70
2022-09-02T22:18:11.376Z,2.97
2022-09-02T22:20:45.283Z,2.70
2022-09-02T22:23:25.903Z,2.97
2022-09-02T22:26:08.806Z,3.22
2022-09-02T22:28:45.940Z,3.28
2022-09-02T22:31:18.224Z,3.20
2022-09-02T22:33:56.028Z,3.40
2022-09-02T22:36:36.734Z,3.90
2022-09-02T22:39:08.023Z,3.80
2022-09-02T22:41:51.242Z,3.70
2022-09-02T22:44:49.650Z,4.00
2022-09-02T22:47:39.356Z,5.60
2022-09-02T22:50:30.492Z,5.50
2022-09-02T22:52:59.866Z,5.32
2022-09-02T22:55:51.138Z,3.90
2022-09-02T22:58:44.941Z,3.55
2022-09-02T23:01:20.535Z,3.30
2022-09-02T23:04:02.857Z,3.75
2022-09-02T23:06:34.082Z,4.15
2022-09-02T23:09:15.226Z,9.45
2022-09-02T23:12:05.754Z,9.73
2022-09-02T23:14:45.096Z,10.88
2022-09-02T23:17:24.166Z,20.20
2022-09-02T23:20:12.590Z,18.63
2022-09-02T23:23:12.016Z,19.85
2022-09-02T23:26:15.342Z,19.67
2022-09-02T23:29:02.603Z,19.50
2022-09-02T23:31:47.636Z,18.10
2022-09-02T23:34:31.074Z,18.38
2022-09-02T23:37:10.098Z,18.20
2022-09-02T23:39:51.625Z,19.30
2022-09-02T23:42:20.917Z,19.10
2022-09-02T23:45:04.509Z,17.50
2022-09-02T23:47:43.574Z,18.15
2022-09-02T23:50:25.225Z,15.15
2022-09-02T23:53:00.201Z,12.60
2022-09-02T23:55:39.541Z,11.05
2022-09-02T23:58:23.540Z,10.93
